Time;durP1;ratioP1;P1;durP2;ratioP2;P2;SDS_P1;SDS_P2;PMS_P1;PMS_P2;Temp;Humidity;BMP_temperature;BMP_pressure;BME280_temperature;BME280_humidity;BME280_pressure;Samples;Min_cycle;Max_cycle;Signal;HPM_P1;HPM_P2
2021/10/17 00:00:04;;;;;;;22.17;13.80;;;;;;;17.79;39.21;99793.91;1835855;76;21006;-38
2021/10/17 00:02:32;;;;;;;21.82;13.43;;;;;;;17.77;39.15;99789.61;1835358;76;20999;-37
2021/10/17 00:04:59;;;;;;;21.75;13.08;;;;;;;17.74;39.18;99784.01;1834855;77;21058;-37
2021/10/17 00:07:26;;;;;;;20.82;12.90;;;;;;;17.74;39.15;99784.01;1834689;76;21086;-38
2021/10/17 00:09:52;;;;;;;23.95;14.07;;;;;;;17.73;39.08;99779.63;1836651;76;21110;-37
2021/10/17 00:12:19;;;;;;;20.72;13.22;;;;;;;17.72;39.05;99779.71;1836890;76;21062;-38
2021/10/17 00:14:46;;;;;;;19.32;13.15;;;;;;;17.71;38.99;99781.53;1837816;76;21014;-37
2021/10/17 00:17:12;;;;;;;21.70;12.75;;;;;;;17.69;38.94;99781.25;1839631;76;21967;-37
2021/10/17 00:19:38;;;;;;;22.42;12.82;;;;;;;17.67;38.97;99778.69;1836141;76;21086;-38
2021/10/17 00:22:05;;;;;;;19.30;12.85;;;;;;;17.67;38.94;99784.00;1830314;76;21097;-38
2021/10/17 00:24:33;;;;;;;19.17;12.63;;;;;;;17.66;38.91;99778.29;1836556;76;21034;-38
2021/10/17 00:26:59;;;;;;;17.82;12.20;;;;;;;17.64;38.85;99778.86;1834626;77;21054;-38
2021/10/17 00:29:26;;;;;;;18.77;12.95;;;;;;;17.62;38.84;99778.10;1835977;76;21030;-38
2021/10/17 00:31:52;;;;;;;20.60;12.40;;;;;;;17.61;38.86;99781.70;1836278;76;21042;-38
2021/10/17 00:34:19;;;;;;;19.32;13.00;;;;;;;17.59;38.84;99779.61;1835916;76;21078;-37
2021/10/17 00:36:46;;;;;;;21.57;13.55;;;;;;;17.58;38.82;99779.22;1834443;77;21529;-37
2021/10/17 00:39:15;;;;;;;19.42;12.37;;;;;;;17.56;38.78;99776.64;1834192;76;21042;-38
2021/10/17 00:41:41;;;;;;;22.25;12.85;;;;;;;17.54;38.80;99775.04;1836421;76;20972;-38
2021/10/17 00:44:08;;;;;;;17.12;12.03;;;;;;;17.53;38.83;99773.31;1835780;76;21131;-37
2021/10/17 00:46:36;;;;;;;22.37;11.80;;;;;;;17.52;38.78;99772.95;1834505;76;21042;-37
2021/10/17 00:49:02;;;;;;;20.55;12.60;;;;;;;17.51;38.71;99769.41;1834169;76;22142;-37
2021/10/17 00:51:29;;;;;;;20.68;12.40;;;;;;;17.52;38.66;99770.29;1835892;76;21101;-37
2021/10/17 00:53:55;;;;;;;16.73;11.53;;;;;;;17.50;38.64;99770.83;1825235;77;21585;-38
2021/10/17 00:56:21;;;;;;;18.48;11.57;;;;;;;17.49;38.58;99771.31;1810947;77;21205;-37
2021/10/17 00:58:48;;;;;;;21.25;12.45;;;;;;;17.48;38.54;99775.39;1818077;77;21139;-38
2021/10/17 01:01:14;;;;;;;21.60;12.28;;;;;;;17.45;38.43;99769.31;1812617;77;21010;-38
2021/10/17 01:03:40;;;;;;;21.97;13.28;;;;;;;17.43;38.41;99771.21;1812181;77;21068;-37
2021/10/17 01:06:11;;;;;;;23.70;11.68;;;;;;;17.41;38.31;99773.08;1807359;77;21220;-38
2021/10/17 01:08:35;;;;;;;20.40;12.63;;;;;;;17.37;38.26;99776.88;1808329;77;21039;-37
2021/10/17 01:11:02;;;;;;;18.27;11.90;;;;;;;17.33;38.28;99768.72;1813996;77;21125;-37
2021/10/17 01:13:30;;;;;;;19.55;12.23;;;;;;;17.32;38.24;99774.12;1829862;77;21490;-37
2021/10/17 01:15:57;;;;;;;25.32;13.32;;;;;;;17.31;38.23;99773.23;1809880;77;21036;-38
2021/10/17 01:18:27;;;;;;;22.42;13.78;;;;;;;17.30;38.20;99779.53;1801416;77;21672;-37
2021/10/17 01:20:56;;;;;;;19.67;12.13;;;;;;;17.29;38.17;99775.62;1802317;77;21018;-38
2021/10/17 01:23:23;;;;;;;20.32;12.45;;;;;;;17.27;38.13;99771.72;1803945;77;21101;-38
2021/10/17 01:25:51;;;;;;;24.57;13.48;;;;;;;17.25;38.12;99772.30;1809518;77;21565;-38
2021/10/17 01:28:19;;;;;;;19.62;12.78;;;;;;;17.23;37.98;99771.50;1798605;77;21051;-38
2021/10/17 01:30:45;;;;;;;20.43;12.45;;;;;;;17.20;38.00;99766.39;1818528;77;21102;-37
2021/10/17 01:33:12;;;;;;;22.05;13.58;;;;;;;17.19;37.97;99771.30;1804118;77;21065;-37
2021/10/17 01:35:38;;;;;;;20.48;13.13;;;;;;;17.19;37.90;99773.97;1815756;77;21102;-38
2021/10/17 01:38:05;;;;;;;23.07;13.72;;;;;;;17.16;37.92;99772.33;1818661;77;21063;-39
2021/10/17 01:40:32;;;;;;;22.02;13.00;;;;;;;17.13;37.81;99766.34;1818236;78;21569;-38
2021/10/17 01:42:59;;;;;;;27.32;14.35;;;;;;;17.10;37.82;99767.38;1825283;78;21036;-38
2021/10/17 01:45:26;;;;;;;21.75;12.80;;;;;;;17.08;37.76;99770.13;1818830;77;21043;-39
2021/10/17 01:47:53;;;;;;;21.93;13.18;;;;;;;17.10;37.82;99776.69;1818898;78;21082;-39
2021/10/17 01:50:21;;;;;;;23.47;13.30;;;;;;;17.12;37.76;99776.60;1823366;77;21043;-39
2021/10/17 01:52:48;;;;;;;22.45;13.40;;;;;;;17.13;37.62;99776.97;1818805;78;21008;-38
2021/10/17 01:55:14;;;;;;;21.77;14.33;;;;;;;17.11;37.61;99778.86;1836359;77;20971;-38
2021/10/17 01:57:41;;;;;;;21.15;13.65;;;;;;;17.09;37.58;99782.45;1830063;76;21776;-38
2021/10/17 02:00:10;;;;;;;22.13;13.65;;;;;;;17.08;37.58;99783.91;1840018;76;21223;-38
2021/10/17 02:02:44;;;;;;;21.75;13.70;;;;;;;17.06;37.64;99783.98;1831322;76;20962;-39
2021/10/17 02:05:12;;;;;;;22.98;14.33;;;;;;;17.04;37.66;99780.53;1837832;77;21094;-38
2021/10/17 02:07:41;;;;;;;21.75;14.58;;;;;;;17.01;37.69;99779.41;1829335;77;21003;-38
2021/10/17 02:10:09;;;;;;;23.73;14.07;;;;;;;17.00;37.67;99790.13;1834265;77;21014;-38
2021/10/17 02:12:36;;;;;;;25.68;14.78;;;;;;;16.98;37.71;99789.33;1834591;77;21146;-37
2021/10/17 02:15:05;;;;;;;19.60;14.07;;;;;;;16.98;37.74;99791.54;1834273;77;21081;-38
2021/10/17 02:17:34;;;;;;;22.75;14.43;;;;;;;16.96;37.77;99792.07;1834733;76;21940;-37
2021/10/17 02:20:04;;;;;;;26.82;16.10;;;;;;;16.96;37.78;99793.88;1832940;78;21266;-37
2021/10/17 02:22:31;;;;;;;25.37;14.73;;;;;;;16.95;37.81;99791.70;1839500;76;21485;-38
2021/10/17 02:24:59;;;;;;;25.23;14.80;;;;;;;16.93;37.85;99792.27;1851202;76;21840;-38
2021/10/17 02:27:25;;;;;;;21.10;14.28;;;;;;;16.92;37.90;99787.05;1839165;76;21672;-38
2021/10/17 02:29:55;;;;;;;22.70;14.63;;;;;;;16.91;37.95;99795.47;1850012;76;21053;-38
2021/10/17 02:32:24;;;;;;;22.98;15.28;;;;;;;16.92;37.90;99797.19;1833710;77;21018;-38
2021/10/17 02:34:52;;;;;;;25.43;14.93;;;;;;;16.92;37.89;99795.86;1831937;78;21509;-37
2021/10/17 02:37:20;;;;;;;23.02;15.00;;;;;;;16.91;37.88;99796.80;1833077;76;21109;-38
2021/10/17 02:39:46;;;;;;;22.30;14.53;;;;;;;16.89;37.88;99801.34;1832939;78;21289;-38
2021/10/17 02:42:13;;;;;;;25.37;14.58;;;;;;;16.87;37.88;99803.23;1834397;76;21062;-38
2021/10/17 02:44:42;;;;;;;25.88;14.45;;;;;;;16.85;37.91;99798.01;1803627;78;21007;-38
2021/10/17 02:47:08;;;;;;;21.87;14.07;;;;;;;16.84;37.91;99798.06;1841947;76;21092;-38
2021/10/17 02:49:36;;;;;;;20.77;14.53;;;;;;;16.82;37.95;99795.48;1848554;76;21157;-37
2021/10/17 02:52:04;;;;;;;21.10;14.28;;;;;;;16.83;37.92;99793.23;1833270;76;21137;-38
2021/10/17 02:54:30;;;;;;;24.00;13.90;;;;;;;16.85;37.84;99787.86;1848370;76;20996;-38
2021/10/17 02:56:59;;;;;;;22.45;13.65;;;;;;;16.85;37.83;99793.17;1836097;77;21567;-38
2021/10/17 02:59:26;;;;;;;19.70;13.13;;;;;;;16.85;37.81;99787.86;1839828;77;21074;-38
2021/10/17 03:01:53;;;;;;;23.57;14.18;;;;;;;16.84;37.72;99787.42;1818988;77;21828;-38
2021/10/17 03:04:19;;;;;;;21.95;14.05;;;;;;;16.82;37.71;99791.98;1811741;77;21013;-38
2021/10/17 03:06:47;;;;;;;20.62;12.60;;;;;;;16.81;37.67;99795.56;1802034;77;20915;-38
2021/10/17 03:09:14;;;;;;;24.10;13.78;;;;;;;16.80;37.63;99789.41;1762414;79;21086;-39
2021/10/17 03:11:41;;;;;;;21.12;13.48;;;;;;;16.80;37.60;99797.86;1723119;80;21137;-38
2021/10/17 03:14:08;;;;;;;19.02;12.65;;;;;;;16.79;37.64;99798.79;1723079;80;21145;-38
2021/10/17 03:16:35;;;;;;;20.35;13.55;;;;;;;16.79;37.65;99798.79;1738806;81;21015;-39
2021/10/17 03:19:02;;;;;;;25.02;13.78;;;;;;;16.78;37.61;99807.69;1731909;81;21029;-38
2021/10/17 03:21:29;;;;;;;23.95;13.65;;;;;;;16.78;37.66;99806.36;1810769;78;22266;-40
2021/10/17 03:23:55;;;;;;;22.32;13.53;;;;;;;16.77;37.69;99803.34;1804523;77;21073;-39
2021/10/17 03:26:22;;;;;;;22.80;13.08;;;;;;;16.77;37.74;99808.66;1753632;79;21761;-39
2021/10/17 03:28:48;;;;;;;20.45;13.40;;;;;;;16.77;37.77;99807.33;1723093;80;21003;-39
2021/10/17 03:31:15;;;;;;;21.37;13.30;;;;;;;16.76;37.79;99806.48;1738665;81;21057;-40
2021/10/17 03:33:42;;;;;;;24.87;14.47;;;;;;;16.74;37.85;99803.02;1735726;81;21013;-39
2021/10/17 03:36:10;;;;;;;22.73;13.60;;;;;;;16.74;37.90;99803.50;1777815;79;21058;-39
2021/10/17 03:38:38;;;;;;;26.02;13.50;;;;;;;16.72;37.96;99804.44;1741050;81;21109;-39
2021/10/17 03:41:04;;;;;;;22.15;13.62;;;;;;;16.71;38.01;99804.06;1769786;79;21076;-39
2021/10/17 03:43:34;;;;;;;21.65;13.40;;;;;;;16.70;38.05;99805.00;1778235;79;21074;-39
2021/10/17 03:46:01;;;;;;;21.62;12.10;;;;;;;16.70;38.11;99801.02;1769722;79;21041;-39
2021/10/17 03:48:30;;;;;;;22.37;12.82;;;;;;;16.69;38.14;99796.66;1739891;79;21025;-38
2021/10/17 03:50:57;;;;;;;23.62;12.58;;;;;;;16.67;38.21;99799.84;1785420;78;22834;-38
2021/10/17 03:53:24;;;;;;;22.70;12.80;;;;;;;16.68;38.23;99804.23;1784647;78;21020;-40
2021/10/17 03:55:50;;;;;;;22.42;13.20;;;;;;;16.68;38.24;99804.23;1789510;78;21040;-38
2021/10/17 03:58:17;;;;;;;22.50;12.33;;;;;;;16.67;38.26;99801.66;1799083;78;21028;-39
2021/10/17 04:00:43;;;;;;;22.93;12.68;;;;;;;16.67;38.31;99806.48;1802190;78;22433;-38
2021/10/17 04:03:10;;;;;;;25.80;12.70;;;;;;;16.66;38.36;99799.93;1788971;78;21095;-39
2021/10/17 04:05:37;;;;;;;19.30;11.35;;;;;;;16.65;38.39;99801.73;1795383;78;21547;-38
2021/10/17 04:08:07;;;;;;;19.70;12.15;;;;;;;16.64;38.40;99808.02;1796124;79;21033;-39
2021/10/17 04:10:35;;;;;;;19.65;11.78;;;;;;;16.62;38.46;99805.89;1797292;78;21011;-38
2021/10/17 04:13:03;;;;;;;20.10;12.25;;;;;;;16.61;38.49;99808.17;1796664;78;21107;-39
2021/10/17 04:15:37;;;;;;;18.98;11.48;;;;;;;16.60;38.52;99806.45;1790445;78;21026;-39
2021/10/17 04:18:06;;;;;;;21.57;11.95;;;;;;;16.61;38.56;99811.28;1797840;78;21046;-38
2021/10/17 04:20:34;;;;;;;19.10;11.63;;;;;;;16.60;38.56;99806.45;1788675;78;21070;-38
2021/10/17 04:23:03;;;;;;;19.75;11.68;;;;;;;16.60;38.57;99810.44;1797773;78;21006;-38
2021/10/17 04:25:31;;;;;;;18.98;11.10;;;;;;;16.58;38.60;99812.33;1798003;79;21351;-38
2021/10/17 04:27:58;;;;;;;18.73;10.58;;;;;;;16.59;38.61;99814.02;1816936;78;21124;-38
2021/10/17 04:30:26;;;;;;;18.45;11.50;;;;;;;16.57;38.66;99811.92;1801060;78;20959;-38
2021/10/17 04:32:55;;;;;;;16.70;11.08;;;;;;;16.57;38.73;99814.58;1765066;79;21896;-38
2021/10/17 04:35:23;;;;;;;26.27;10.88;;;;;;;16.62;39.36;99817.84;1780400;79;21054;-39
2021/10/17 04:37:50;;;;;;;16.62;10.30;;;;;;;16.79;39.87;99813.41;1798046;79;21052;-38
2021/10/17 04:40:17;;;;;;;16.05;10.35;;;;;;;16.98;40.04;99811.48;1780413;78;21114;-39
2021/10/17 04:42:44;;;;;;;16.35;9.98;;;;;;;17.18;39.92;99817.44;1788192;78;21881;-40
2021/10/17 04:45:12;;;;;;;16.15;10.20;;;;;;;17.34;39.74;99818.28;1776802;80;21085;-39
2021/10/17 04:47:38;;;;;;;12.95;9.35;;;;;;;17.52;39.54;99820.84;1784507;79;21113;-39
2021/10/17 04:50:06;;;;;;;14.10;9.83;;;;;;;17.66;39.35;99820.86;1803349;78;21029;-40
2021/10/17 04:52:34;;;;;;;14.45;9.45;;;;;;;17.79;39.15;99819.19;1800388;78;21619;-40
2021/10/17 04:55:01;;;;;;;12.05;9.40;;;;;;;17.92;39.02;99817.14;1766504;79;21020;-39
2021/10/17 04:57:27;;;;;;;16.82;8.78;;;;;;;18.04;39.03;99819.08;1805138;78;21020;-39
2021/10/17 04:59:56;;;;;;;16.67;8.93;;;;;;;18.14;39.09;99825.56;1813740;78;21621;-40
2021/10/17 05:02:22;;;;;;;15.63;8.80;;;;;;;18.25;39.13;99822.70;1819126;78;21119;-38
2021/10/17 05:04:49;;;;;;;14.98;8.63;;;;;;;18.34;39.16;99826.12;1812990;78;21439;-38
2021/10/17 05:07:17;;;;;;;13.05;9.23;;;;;;;18.44;39.18;99825.08;1802147;78;21586;-38
2021/10/17 05:09:44;;;;;;;12.98;9.13;;;;;;;18.53;39.27;99830.70;1768397;79;21072;-39
2021/10/17 05:12:12;;;;;;;12.03;8.53;;;;;;;18.61;39.39;99826.69;1772237;79;21031;-40
2021/10/17 05:14:39;;;;;;;21.97;9.05;;;;;;;18.70;39.53;99828.30;1777061;79;21081;-39
2021/10/17 05:17:05;;;;;;;12.73;7.83;;;;;;;18.79;39.59;99830.84;1834069;77;21111;-38
2021/10/17 05:19:33;;;;;;;12.53;8.45;;;;;;;18.87;39.61;99835.25;1771005;79;21010;-38
2021/10/17 05:22:00;;;;;;;13.35;8.35;;;;;;;18.96;39.74;99832.46;1799588;78;21724;-38
2021/10/17 05:24:27;;;;;;;11.45;7.58;;;;;;;19.04;39.91;99830.16;1800403;78;21231;-39
2021/10/17 05:26:54;;;;;;;12.85;7.28;;;;;;;19.13;39.94;99839.37;1801322;79;21089;-38
2021/10/17 05:29:21;;;;;;;11.70;7.47;;;;;;;19.21;40.03;99832.21;1812034;78;21517;-40
2021/10/17 05:31:49;;;;;;;10.65;7.90;;;;;;;19.28;40.06;99834.84;1801558;79;21297;-40
2021/10/17 05:34:15;;;;;;;11.83;7.40;;;;;;;19.33;40.02;99837.22;1811509;78;21065;-39
2021/10/17 05:36:42;;;;;;;17.75;8.40;;;;;;;19.38;39.99;99837.77;1804273;78;21020;-39
2021/10/17 05:39:11;;;;;;;8.83;7.33;;;;;;;19.42;40.02;99836.14;1818045;78;21075;-38
2021/10/17 05:41:39;;;;;;;13.20;7.53;;;;;;;19.47;40.07;99840.69;1795259;78;21085;-38
2021/10/17 05:44:06;;;;;;;12.45;8.23;;;;;;;19.51;40.13;99844.00;1818450;78;21028;-38
2021/10/17 05:46:34;;;;;;;24.70;13.48;;;;;;;19.54;39.47;99843.80;1769941;79;21052;-40
2021/10/17 05:49:00;;;;;;;17.75;11.20;;;;;;;19.45;38.44;99843.06;1797051;78;21016;-41
2021/10/17 05:51:27;;;;;;;16.32;10.05;;;;;;;19.32;38.60;99849.71;1800430;78;21435;-40
2021/10/17 05:53:53;;;;;;;14.05;10.00;;;;;;;19.16;38.55;99854.33;1804924;78;21131;-39
2021/10/17 05:56:19;;;;;;;15.98;9.90;;;;;;;19.02;38.58;99857.89;1791680;78;21529;-39
2021/10/17 05:58:46;;;;;;;14.07;9.58;;;;;;;18.88;38.84;99851.63;1795106;78;21105;-39
2021/10/17 06:01:12;;;;;;;15.18;8.98;;;;;;;18.80;39.66;99853.89;1793963;78;21144;-39
2021/10/17 06:03:41;;;;;;;13.60;8.68;;;;;;;18.80;40.09;99851.23;1796483;78;21103;-39
2021/10/17 06:06:16;;;;;;;16.37;9.88;;;;;;;18.81;40.22;99848.95;1770412;78;21162;-39
2021/10/17 06:08:46;;;;;;;17.48;10.15;;;;;;;18.86;40.22;99851.34;1803187;78;21292;-39
2021/10/17 06:11:13;;;;;;;15.93;9.98;;;;;;;18.88;40.25;99854.30;1762126;79;21086;-39
2021/10/17 06:13:39;;;;;;;15.50;9.68;;;;;;;18.91;40.26;99859.44;1810577;78;21023;-39
2021/10/17 06:16:06;;;;;;;17.73;10.68;;;;;;;18.94;40.23;99861.89;1837579;77;21075;-40
2021/10/17 06:18:32;;;;;;;18.87;10.03;;;;;;;18.97;40.28;99858.67;1824911;77;21754;-39
2021/10/17 06:21:00;;;;;;;21.15;10.08;;;;;;;19.00;40.32;99860.66;1789487;79;21040;-39
2021/10/17 06:23:27;;;;;;;28.35;10.53;;;;;;;19.03;40.27;99865.80;1790525;79;21048;-40
2021/10/17 06:25:54;;;;;;;20.80;10.60;;;;;;;19.06;40.38;99862.94;1791796;79;21000;-40
2021/10/17 06:28:21;;;;;;;31.90;11.40;;;;;;;19.11;40.77;99862.63;1838763;77;21051;-41
2021/10/17 06:30:48;;;;;;;25.82;10.75;;;;;;;19.20;41.32;99868.71;1830516;77;21189;-40
2021/10/17 06:33:15;;;;;;;32.85;11.30;;;;;;;19.30;41.59;99868.48;1831472;77;21253;-40
2021/10/17 06:35:42;;;;;;;25.35;10.03;;;;;;;19.41;42.02;99865.09;1835633;77;21063;-40
2021/10/17 06:38:08;;;;;;;27.40;11.08;;;;;;;19.51;41.84;99860.02;1831228;77;21121;-40
2021/10/17 06:40:38;;;;;;;20.12;10.85;;;;;;;19.60;41.59;99859.88;1803755;78;21098;-40
2021/10/17 06:43:07;;;;;;;21.90;9.55;;;;;;;19.64;41.28;99856.91;1828904;77;21137;-40
2021/10/17 06:45:49;;;;;;;17.70;9.65;;;;;;;19.71;41.04;99856.51;1753638;79;21063;-39
2021/10/17 06:48:17;;;;;;;19.42;9.75;;;;;;;19.77;40.83;99858.78;1794038;78;21053;-39
2021/10/17 06:50:44;;;;;;;24.25;10.00;;;;;;;19.83;40.73;99854.37;1792474;79;20969;-39
2021/10/17 06:53:10;;;;;;;1580.53;899.40;;;;;;;19.89;40.06;99855.75;1784333;79;21040;-40
2021/10/17 06:55:37;;;;;;;633.23;510.57;;;;;;;19.91;39.62;99853.86;1775969;79;21026;-39
2021/10/17 06:58:04;;;;;;;403.95;313.98;;;;;;;19.91;39.73;99854.70;1794776;78;21030;-39
2021/10/17 07:00:32;;;;;;;332.23;253.27;;;;;;;19.94;39.91;99855.84;1793923;78;20976;-39
2021/10/17 07:02:59;;;;;;;277.68;209.75;;;;;;;19.95;39.88;99857.53;1793362;78;21406;-40
2021/10/17 07:05:26;;;;;;;233.93;174.00;;;;;;;19.97;39.86;99856.09;1820663;77;21055;-39
2021/10/17 07:07:52;;;;;;;213.57;151.87;;;;;;;19.98;39.79;99861.33;1827138;77;21137;-39
2021/10/17 07:10:20;;;;;;;179.68;129.20;;;;;;;19.99;39.73;99860.38;1808696;77;21074;-40
2021/10/17 07:12:49;;;;;;;152.43;111.00;;;;;;;20.01;39.67;99859.79;1784938;78;21010;-40
2021/10/17 07:15:18;;;;;;;132.40;95.72;;;;;;;20.04;39.62;99866.27;1803317;77;21189;-40
2021/10/17 07:17:52;;;;;;;109.63;78.05;;;;;;;20.07;39.57;99864.34;1819083;77;21145;-40
2021/10/17 07:20:19;;;;;;;86.45;58.92;;;;;;;20.09;39.40;99863.74;1768130;79;22077;-39
2021/10/17 07:22:45;;;;;;;91.87;61.83;;;;;;;20.09;38.91;99863.74;1765342;79;21002;-39
2021/10/17 07:25:12;;;;;;;71.15;50.63;;;;;;;20.09;39.09;99869.09;1766087;79;21430;-39
2021/10/17 07:27:39;;;;;;;72.80;50.25;;;;;;;20.09;38.78;99867.75;1787985;79;21633;-39
2021/10/17 07:30:07;;;;;;;63.30;43.35;;;;;;;20.09;38.83;99865.95;1770170;79;21021;-39
2021/10/17 07:32:35;;;;;;;53.65;35.78;;;;;;;20.10;38.91;99869.47;1788325;79;21094;-39
2021/10/17 07:35:04;;;;;;;48.92;32.33;;;;;;;20.13;38.93;99869.27;1787962;78;21487;-39
2021/10/17 07:37:32;;;;;;;40.25;27.07;;;;;;;20.13;38.39;99867.44;1763264;79;20978;-39
2021/10/17 07:40:00;;;;;;;33.02;23.40;;;;;;;20.14;38.78;99866.49;1784002;79;21105;-39
2021/10/17 07:42:27;;;;;;;26.00;17.57;;;;;;;20.17;38.81;99863.62;1792617;79;21089;-39
2021/10/17 07:44:54;;;;;;;25.52;14.43;;;;;;;20.19;37.94;99868.83;1752157;81;21818;-39
2021/10/17 07:47:22;;;;;;;26.77;18.17;;;;;;;20.16;37.54;99869.91;1831338;77;20967;-39
2021/10/17 07:49:51;;;;;;;22.70;14.98;;;;;;;20.11;37.76;99872.05;1813388;77;21010;-39
2021/10/17 07:52:19;;;;;;;19.98;12.58;;;;;;;20.11;37.76;99871.20;1825631;77;21066;-39
2021/10/17 07:54:47;;;;;;;18.87;11.22;;;;;;;20.09;37.15;99867.75;1816578;77;21067;-40
2021/10/17 07:57:15;;;;;;;13.80;9.50;;;;;;;20.04;37.25;99866.75;1835708;76;21954;-38
2021/10/17 07:59:41;;;;;;;22.27;11.57;;;;;;;20.01;36.48;99871.81;1788738;78;21020;-40
2021/10/17 08:02:10;;;;;;;12.10;9.18;;;;;;;19.95;36.99;99870.03;1756786;79;21126;-39
2021/10/17 08:04:40;;;;;;;15.55;8.38;;;;;;;19.93;36.89;99874.63;1763744;81;21068;-39
2021/10/17 08:07:16;;;;;;;11.97;7.20;;;;;;;19.92;36.62;99880.47;1763331;79;21036;-40
2021/10/17 08:09:43;;;;;;;11.95;6.80;;;;;;;19.88;36.99;99870.93;1736516;81;21141;-40
2021/10/17 08:12:10;;;;;;;13.25;6.85;;;;;;;19.85;36.44;99871.13;1798142;78;21312;-40
2021/10/17 08:14:37;;;;;;;12.00;6.50;;;;;;;19.77;36.22;99869.00;1791248;78;21061;-40
2021/10/17 08:17:04;;;;;;;11.30;6.08;;;;;;;19.65;35.97;99863.09;1795346;78;21046;-39
2021/10/17 08:19:45;;;;;;;8.43;5.37;;;;;;;19.53;36.16;99861.25;1792280;78;20998;-39
2021/10/17 08:22:13;;;;;;;9.20;5.45;;;;;;;19.45;36.11;99865.75;1791454;78;21737;-40
2021/10/17 08:24:39;;;;;;;10.68;4.97;;;;;;;19.41;36.01;99866.92;1796051;78;21031;-40
2021/10/17 08:27:06;;;;;;;10.03;5.33;;;;;;;19.34;36.07;99863.80;1792055;78;21098;-40
2021/10/17 08:29:33;;;;;;;9.88;4.72;;;;;;;19.28;35.91;99867.73;1764960;79;21128;-40
2021/10/17 08:31:59;;;;;;;9.58;4.28;;;;;;;19.18;35.79;99863.95;1789501;78;21185;-40
2021/10/17 08:34:28;;;;;;;10.78;4.75;;;;;;;19.07;35.95;99867.30;1787622;78;23136;-39
2021/10/17 08:36:55;;;;;;;1354.83;796.33;;;;;;;18.99;35.88;99863.42;1797306;78;21030;-41
2021/10/17 08:39:42;;;;;;;810.02;619.73;;;;;;;18.94;36.74;99865.89;1745733;78;20998;-39
2021/10/17 08:42:10;;;;;;;361.10;294.20;;;;;;;18.99;37.50;99861.60;1794835;79;21001;-39
2021/10/17 08:44:38;;;;;;;221.00;166.22;;;;;;;19.08;37.66;99862.81;1771623;79;21631;-39
2021/10/17 08:47:07;;;;;;;190.35;144.43;;;;;;;19.15;37.01;99861.48;1770151;79;21141;-39
2021/10/17 08:49:36;;;;;;;162.85;119.37;;;;;;;19.21;37.37;99863.73;1811818;78;20937;-39
2021/10/17 08:52:09;;;;;;;132.70;100.40;;;;;;;19.30;37.64;99860.48;1795067;78;21627;-39
2021/10/17 08:54:33;;;;;;;115.32;83.00;;;;;;;19.38;37.79;99859.11;1796254;78;21073;-39
2021/10/17 08:57:02;;;;;;;92.22;60.03;;;;;;;19.48;37.91;99862.88;1807888;78;21551;-39
2021/10/17 08:59:30;;;;;;;64.67;40.65;;;;;;;19.52;36.61;99867.08;1801205;78;21173;-39
2021/10/17 09:01:57;;;;;;;57.10;32.50;;;;;;;19.49;35.75;99865.45;1797781;78;21044;-39
2021/10/17 09:04:27;;;;;;;49.53;27.85;;;;;;;19.42;34.95;99863.31;1797939;78;21133;-39
2021/10/17 09:06:55;;;;;;;45.08;27.15;;;;;;;19.26;34.72;99870.95;1798435;78;21519;-39
2021/10/17 09:09:22;;;;;;;44.15;23.95;;;;;;;19.14;35.15;99865.09;1809314;78;21499;-39
2021/10/17 09:11:52;;;;;;;34.83;21.45;;;;;;;19.14;35.29;99871.77;1803389;78;21146;-40
2021/10/17 09:14:34;;;;;;;41.68;20.10;;;;;;;19.18;35.45;99868.42;1803971;78;21098;-40
2021/10/17 09:16:58;;;;;;;38.65;19.48;;;;;;;19.18;34.24;99866.63;1803542;78;32580;-40
2021/10/17 09:19:31;;;;;;;37.93;16.62;;;;;;;19.10;34.50;99867.59;1816257;78;21012;-39
2021/10/17 09:22:09;;;;;;;38.28;18.00;;;;;;;19.08;34.33;99868.15;1793904;78;21054;-39
2021/10/17 09:24:42;;;;;;;33.13;15.80;;;;;;;19.05;34.51;99855.88;1800734;78;21139;-39
2021/10/17 09:27:22;;;;;;;25.10;12.43;;;;;;;19.06;34.83;99854.94;1793767;78;20955;-40
2021/10/17 09:29:52;;;;;;;23.50;12.10;;;;;;;19.09;34.81;99856.53;1787091;78;21002;-39
2021/10/17 09:32:23;;;;;;;25.40;12.37;;;;;;;19.12;34.42;99855.02;1775157;78;21480;-39
2021/10/17 09:35:02;;;;;;;20.45;10.65;;;;;;;19.14;35.28;99856.25;1774925;78;21085;-39
2021/10/17 09:37:38;;;;;;;18.10;9.58;;;;;;;19.19;35.17;99849.64;1790448;78;21591;-39
2021/10/17 09:40:25;;;;;;;12.53;7.58;;;;;;;19.24;35.59;99846.69;1780993;78;21074;-38
2021/10/17 09:43:13;;;;;;;14.10;6.35;;;;;;;19.31;35.14;99848.83;1791826;78;21108;-39
2021/10/17 09:45:41;;;;;;;12.07;6.25;;;;;;;19.37;34.07;99851.59;1792439;78;27096;-39
2021/10/17 09:48:09;;;;;;;11.65;6.05;;;;;;;19.41;33.60;99841.58;1796205;78;21034;-39
2021/10/17 09:50:37;;;;;;;13.43;5.37;;;;;;;19.44;33.70;99842.70;1800043;78;21115;-39
2021/10/17 09:53:14;;;;;;;14.85;5.47;;;;;;;19.47;33.10;99846.52;1796838;78;22164;-39
2021/10/17 09:55:38;;;;;;;9.03;5.30;;;;;;;19.49;33.14;99842.77;1784517;78;22136;-39
2021/10/17 09:58:06;;;;;;;12.68;5.70;;;;;;;19.52;32.97;99840.39;1790999;78;21256;-39
2021/10/17 10:00:35;;;;;;;10.95;5.53;;;;;;;19.56;33.55;99843.22;1793041;78;21103;-38
2021/10/17 10:03:02;;;;;;;9.93;4.80;;;;;;;19.62;33.83;99844.16;1784025;78;21065;-38
2021/10/17 10:05:28;;;;;;;10.08;5.25;;;;;;;19.68;33.96;99841.05;1767158;78;21028;-39
2021/10/17 10:08:01;;;;;;;9.85;5.70;;;;;;;19.74;33.77;99831.79;1782152;78;21089;-39
2021/10/17 10:10:28;;;;;;;9.73;4.70;;;;;;;19.82;34.09;99837.95;1786511;78;21040;-39
2021/10/17 10:13:04;;;;;;;7.20;4.37;;;;;;;19.87;33.61;99842.54;1781344;78;20918;-39
2021/10/17 10:15:30;;;;;;;11.65;4.30;;;;;;;19.91;32.52;99837.84;1805773;78;21136;-39
2021/10/17 10:17:59;;;;;;;8.88;4.37;;;;;;;19.91;31.91;99833.34;1777346;78;21089;-39
2021/10/17 10:20:27;;;;;;;9.65;4.15;;;;;;;19.86;31.48;99830.98;1786162;78;22153;-39
2021/10/17 10:22:53;;;;;;;9.15;4.12;;;;;;;19.85;31.52;99836.42;1781825;78;21049;-38
2021/10/17 10:25:19;;;;;;;10.28;4.47;;;;;;;19.86;32.15;99831.47;1783834;78;21041;-38
2021/10/17 10:27:47;;;;;;;7.50;4.35;;;;;;;19.89;32.57;99823.25;1787458;78;21830;-38
2021/10/17 10:30:32;;;;;;;10.40;5.10;;;;;;;19.94;32.61;99829.12;1780607;78;21058;-39
2021/10/17 10:33:16;;;;;;;8.03;4.10;;;;;;;19.99;32.78;99827.00;1779195;78;21479;-39
2021/10/17 10:36:12;;;;;;;7.47;4.28;;;;;;;20.07;33.10;99829.61;1781923;78;20967;-39
2021/10/17 10:38:57;;;;;;;;;;;;;;;20.13;33.35;99831.87;1753118;79;21112;-39
2021/10/17 10:41:28;;;;;;;5.97;4.10;;;;;;;20.19;33.34;99832.76;1783578;78;21149;-38
2021/10/17 10:44:12;;;;;;;9.50;4.58;;;;;;;20.24;33.20;99826.64;1783697;78;20983;-38
2021/10/17 10:46:40;;;;;;;8.38;4.17;;;;;;;20.29;33.42;99819.61;1788026;78;21061;-39
2021/10/17 10:49:07;;;;;;;10.30;4.17;;;;;;;20.33;33.62;99820.64;1800685;78;21536;-39
2021/10/17 10:51:43;;;;;;;11.65;4.30;;;;;;;20.37;33.49;99819.44;1808966;78;20988;-38
2021/10/17 10:54:31;;;;;;;10.23;4.53;;;;;;;20.43;32.66;99821.34;1789121;78;21145;-39
2021/10/17 10:56:58;;;;;;;6.22;3.77;;;;;;;20.44;31.75;99820.36;1784200;78;21030;-38
2021/10/17 10:59:28;;;;;;;7.03;4.65;;;;;;;20.44;31.97;99811.00;1764893;80;21613;-38
2021/10/17 11:03:04;;;;;;;9.80;5.30;;;;;;;20.43;31.15;99812.83;1807694;78;21038;-38
2021/10/17 11:04:48;;;;;;;15.15;9.00;;;;;;;20.34;30.16;99810.33;1723118;79;20956;-39
2021/10/17 11:07:36;;;;;;;21.30;11.48;;;;;;;20.25;30.00;99816.80;1796518;78;21099;-39
2021/10/17 11:10:25;;;;;;;26.80;13.70;;;;;;;20.16;29.67;99816.97;1811168;78;20991;-38
2021/10/17 11:12:58;;;;;;;23.77;12.10;;;;;;;20.08;29.53;99812.64;1785906;78;21509;-38
2021/10/17 11:15:37;;;;;;;28.23;12.75;;;;;;;20.01;29.69;99808.20;1800403;78;20960;-39
2021/10/17 11:18:12;;;;;;;14.03;8.90;;;;;;;19.97;29.70;99814.23;1803738;78;21046;-39
2021/10/17 11:20:43;;;;;;;16.15;8.98;;;;;;;19.94;29.26;99805.09;1800271;78;21255;-39
2021/10/17 11:23:21;;;;;;;13.03;7.03;;;;;;;19.90;29.37;99809.41;1801912;78;21002;-38
2021/10/17 11:25:55;;;;;;;12.30;6.05;;;;;;;19.89;29.78;99809.02;1758367;79;21086;-39